Los Luceros, New Mexico
Current Conditions -  °F | °C
As of 2:15 PM on Saturday 20 Dec 2014 (Local Time) from KLAM Reporting Station
Clear Clear  
Wind Chill: 35°   Ceiling: Unl
Heat Index: 39°   Visibility: 10mi
Dew Point: 20°   Wind: 6mph
Humidity: 46%   Direction: 160°SSE
Pressure: 30.07"   Gusts: NA
Location:  36.1112°N, 106.046°W
Report Text: KLAM 202115Z AUTO 16005KT 10SM CLR 04/M07 A3007 RMK AO2 T00401066
Loading
Personal Weather Stations






























Interactive Weather Map New forecast layout! Learn more

10-Day Weather Forecast

Advertisements
Track Severe Weather on mobile